createdAt,value
2018-01-14T10:16:32.782Z,29.27
2018-01-14T10:19:02.078Z,31.50
2018-01-14T10:21:32.175Z,30.60
2018-01-14T10:24:01.200Z,28.95
2018-01-14T10:26:31.304Z,32.88
2018-01-14T10:29:00.361Z,29.00
2018-01-14T10:31:31.486Z,31.37
2018-01-14T10:34:01.180Z,29.23
2018-01-14T10:36:30.305Z,32.45
2018-01-14T10:38:59.562Z,30.85
2018-01-14T10:41:29.423Z,30.02
2018-01-14T10:43:58.761Z,32.72
2018-01-14T10:46:27.877Z,28.48
2018-01-14T10:48:56.949Z,27.98
2018-01-14T10:51:26.428Z,30.00
2018-01-14T10:53:56.362Z,27.87
2018-01-14T10:56:28.550Z,26.30
2018-01-14T10:58:57.632Z,37.13
2018-01-14T11:01:31.143Z,27.10
2018-01-14T11:04:01.047Z,27.08
2018-01-14T11:06:30.837Z,29.45
2018-01-14T11:08:59.884Z,22.83
2018-01-14T11:11:29.695Z,24.95
2018-01-14T11:13:58.868Z,25.73
2018-01-14T11:16:27.965Z,25.40
2018-01-14T11:18:57.059Z,24.60
2018-01-14T11:21:26.289Z,27.35
2018-01-14T11:23:56.125Z,26.92
2018-01-14T11:26:26.009Z,23.75
2018-01-14T11:28:55.251Z,26.27
2018-01-14T11:31:24.918Z,25.48
2018-01-14T11:33:54.312Z,22.37
2018-01-14T11:36:23.925Z,25.00
2018-01-14T11:38:54.162Z,21.02
2018-01-14T11:41:24.321Z,19.70
2018-01-14T11:43:54.795Z,19.35
2018-01-14T11:46:23.911Z,23.12
2018-01-14T11:48:54.912Z,15.38
2018-01-14T11:51:24.040Z,16.55
2018-01-14T11:53:53.847Z,19.87
2018-01-14T11:56:27.493Z,17.77
2018-01-14T11:58:57.110Z,16.12
2018-01-14T12:01:27.000Z,18.40
2018-01-14T12:03:56.802Z,18.55
2018-01-14T12:06:26.521Z,17.60
2018-01-14T12:08:55.895Z,18.20
2018-01-14T12:11:24.965Z,16.90
2018-01-14T12:13:54.204Z,15.48
2018-01-14T12:16:24.310Z,19.58
2018-01-14T12:18:54.820Z,18.45
2018-01-14T12:21:24.101Z,15.88
2018-01-14T12:23:54.084Z,17.40
2018-01-14T12:26:24.061Z,18.90
2018-01-14T12:28:54.756Z,16.83
2018-01-14T12:31:23.789Z,18.05
2018-01-14T12:34:01.898Z,19.35
2018-01-14T12:36:31.682Z,19.42
2018-01-14T12:39:02.100Z,19.87
2018-01-14T12:41:31.167Z,17.80
2018-01-14T12:44:01.664Z,21.87
2018-01-14T12:46:32.101Z,18.37
2018-01-14T12:49:06.587Z,21.62
2018-01-14T12:51:36.144Z,20.60
2018-01-14T12:54:05.923Z,21.12
2018-01-14T12:56:36.180Z,19.85
2018-01-14T12:59:06.714Z,19.50
2018-01-14T13:01:36.042Z,22.35
2018-01-14T13:04:05.368Z,21.77
2018-01-14T13:06:35.355Z,18.98
2018-01-14T13:09:05.504Z,23.90
2018-01-14T13:11:34.700Z,23.25
2018-01-14T13:14:04.129Z,18.48
2018-01-14T13:16:34.116Z,23.83
2018-01-14T13:19:03.213Z,23.55
2018-01-14T13:21:32.259Z,23.17
2018-01-14T13:24:02.099Z,24.65
2018-01-14T13:26:31.170Z,21.87
2018-01-14T13:29:00.226Z,27.55
2018-01-14T13:31:30.176Z,24.40
2018-01-14T13:33:59.295Z,24.30
2018-01-14T13:36:30.115Z,26.02
2018-01-14T13:38:59.225Z,27.17
2018-01-14T13:41:29.465Z,24.50
2018-01-14T13:43:58.515Z,24.75
2018-01-14T13:46:28.797Z,23.80
2018-01-14T13:48:57.963Z,27.65
2018-01-14T13:51:27.754Z,23.67
2018-01-14T13:53:57.665Z,24.02
2018-01-14T13:56:27.839Z,24.05
2018-01-14T13:58:58.531Z,27.00
2018-01-14T14:01:31.050Z,27.35
2018-01-14T14:04:01.753Z,25.12
2018-01-14T14:06:37.821Z,26.30
2018-01-14T14:09:06.932Z,26.45
2018-01-14T14:11:45.180Z,28.35
2018-01-14T14:14:18.897Z,25.08
2018-01-14T14:16:52.151Z,26.75
2018-01-14T14:19:24.436Z,28.00
2018-01-14T14:21:57.521Z,26.02
2018-01-14T14:24:31.406Z,26.70
2018-01-14T14:27:03.432Z,30.83
2018-01-14T14:29:38.142Z,28.02
2018-01-14T14:32:10.293Z,28.05
2018-01-14T14:34:42.424Z,30.62
2018-01-14T14:37:27.892Z,29.63
2018-01-14T14:40:08.011Z,28.77
2018-01-14T14:42:53.096Z,29.77
2018-01-14T14:45:36.361Z,28.10
2018-01-14T14:48:13.352Z,27.55
2018-01-14T14:50:48.476Z,30.40
2018-01-14T14:53:19.335Z,27.67
2018-01-14T14:55:51.133Z,26.35
2018-01-14T14:58:25.381Z,33.55
2018-01-14T15:00:55.224Z,31.80
2018-01-14T15:03:26.975Z,32.35
2018-01-14T15:05:59.022Z,31.42
2018-01-14T15:08:29.869Z,30.27
2018-01-14T15:11:02.024Z,33.30
2018-01-14T15:13:32.828Z,31.48
2018-01-14T15:16:06.683Z,33.97
2018-01-14T15:18:40.497Z,29.35
2018-01-14T15:21:11.319Z,32.58
2018-01-14T15:23:43.942Z,33.53
2018-01-14T15:26:15.549Z,35.08
2018-01-14T15:28:47.135Z,32.83
2018-01-14T15:31:17.023Z,33.33
2018-01-14T15:33:46.774Z,33.28
2018-01-14T15:36:16.459Z,35.80
2018-01-14T15:38:47.455Z,34.40
2018-01-14T15:41:17.183Z,30.02
2018-01-14T15:43:54.596Z,34.80
2018-01-14T15:46:24.676Z,33.65
2018-01-14T15:48:58.792Z,35.10
2018-01-14T15:51:34.690Z,38.58
2018-01-14T15:54:09.361Z,34.58
2018-01-14T15:56:43.462Z,40.50
2018-01-14T15:59:14.564Z,40.22
2018-01-14T16:01:44.696Z,39.97
2018-01-14T16:04:16.998Z,38.80
2018-01-14T16:06:48.083Z,42.35
2018-01-14T16:09:20.081Z,43.30
2018-01-14T16:11:52.612Z,38.13
2018-01-14T16:14:24.631Z,43.72
2018-01-14T16:16:59.582Z,39.88
2018-01-14T16:19:30.258Z,44.42
2018-01-14T16:22:01.213Z,40.75
2018-01-14T16:24:35.479Z,36.00
2018-01-14T16:27:04.722Z,38.15
2018-01-14T16:29:35.635Z,44.08
2018-01-14T16:32:08.701Z,42.80
2018-01-14T16:34:41.510Z,45.45
2018-01-14T16:37:10.524Z,42.75
2018-01-14T16:39:41.687Z,36.70
2018-01-14T16:42:10.729Z,40.15
2018-01-14T16:44:40.001Z,38.22
2018-01-14T16:47:14.877Z,41.92
2018-01-14T16:49:44.685Z,37.95
2018-01-14T16:52:13.902Z,39.53
2018-01-14T16:54:43.246Z,37.92
2018-01-14T16:57:13.100Z,36.85
2018-01-14T16:59:44.943Z,40.30
2018-01-14T17:02:15.744Z,40.17
2018-01-14T17:04:46.722Z,39.45
2018-01-14T17:07:16.723Z,37.25
2018-01-14T17:09:48.114Z,38.47
2018-01-14T17:13:20.241Z,40.60
2018-01-14T17:15:50.277Z,37.45
2018-01-14T17:18:21.300Z,38.50
2018-01-14T17:20:52.249Z,38.30
2018-01-14T17:23:22.221Z,42.35
2018-01-14T17:25:52.609Z,35.30
2018-01-14T17:28:22.478Z,39.70
2018-01-14T17:30:53.531Z,37.10
2018-01-14T17:33:25.521Z,35.42
2018-01-14T17:35:55.305Z,35.90
2018-01-14T17:38:25.350Z,37.65
2018-01-14T17:41:25.684Z,32.67
2018-01-14T17:43:56.452Z,34.50
2018-01-14T17:46:25.510Z,37.90
2018-01-14T17:48:54.670Z,30.48
2018-01-14T17:51:25.607Z,39.17
2018-01-14T17:53:56.460Z,39.05
2018-01-14T17:56:25.886Z,36.10
2018-01-14T17:58:56.547Z,34.30
2018-01-14T18:01:28.159Z,37.65
2018-01-14T18:03:57.185Z,36.13
2018-01-14T18:06:28.820Z,35.28
2018-01-14T18:08:59.619Z,33.38
2018-01-14T18:11:35.164Z,33.70
2018-01-14T18:14:04.197Z,38.17
2018-01-14T18:16:35.219Z,35.65
2018-01-14T18:19:06.356Z,36.08
2018-01-14T18:21:38.459Z,34.28
2018-01-14T18:24:11.294Z,34.35
2018-01-14T18:26:44.376Z,33.13
2018-01-14T18:29:15.328Z,32.50
2018-01-14T18:31:46.310Z,32.05
2018-01-14T18:34:16.190Z,37.15
2018-01-14T18:36:45.270Z,30.52
2018-01-14T18:39:15.133Z,35.00
2018-01-14T18:41:44.999Z,35.17
2018-01-14T18:44:14.084Z,32.75
2018-01-14T18:46:43.159Z,36.13
2018-01-14T18:49:13.701Z,35.30
2018-01-14T18:51:42.831Z,33.88
2018-01-14T18:54:11.828Z,34.78
2018-01-14T18:56:43.983Z,30.55
2018-01-14T18:59:13.147Z,36.53
2018-01-14T19:01:42.281Z,35.20
2018-01-14T19:04:11.455Z,33.60
2018-01-14T19:06:40.596Z,30.67
2018-01-14T19:09:12.518Z,32.63
2018-01-14T19:11:41.692Z,33.90
2018-01-14T19:14:12.332Z,31.45
2018-01-14T19:16:43.398Z,36.92
2018-01-14T19:19:12.649Z,30.70
2018-01-14T19:21:41.831Z,37.80
2018-01-14T19:24:12.351Z,34.33
2018-01-14T19:26:46.805Z,32.88
2018-01-14T19:29:17.063Z,34.20
2018-01-14T19:31:47.845Z,31.87
2018-01-14T19:34:20.532Z,28.85
2018-01-14T19:36:51.525Z,30.37
2018-01-14T19:39:21.445Z,32.13
2018-01-14T19:41:50.637Z,26.58
2018-01-14T19:44:22.092Z,33.40
2018-01-14T19:46:51.281Z,27.65
2018-01-14T19:49:24.687Z,27.77
2018-01-14T19:51:54.886Z,27.15
2018-01-14T19:54:27.081Z,28.05
2018-01-14T19:56:56.282Z,28.08
2018-01-14T19:59:26.498Z,29.90
2018-01-14T20:02:01.783Z,30.10
2018-01-14T20:04:30.936Z,28.00
2018-01-14T20:07:04.711Z,25.58
2018-01-14T20:09:33.910Z,22.50
2018-01-14T20:12:11.834Z,25.27
2018-01-14T20:14:41.148Z,26.62
2018-01-14T20:17:12.455Z,23.05
2018-01-14T20:19:41.825Z,24.83
2018-01-14T20:22:13.377Z,26.55
2018-01-14T20:24:44.199Z,24.87
2018-01-14T20:27:15.870Z,27.05
2018-01-14T20:29:46.045Z,26.80
2018-01-14T20:32:18.415Z,24.40
2018-01-14T20:34:47.615Z,25.12
2018-01-14T20:37:17.843Z,23.90
2018-01-14T20:39:48.532Z,25.10
2018-01-14T20:42:22.554Z,23.65
2018-01-14T20:44:55.185Z,25.10
2018-01-14T20:47:25.209Z,21.50
2018-01-14T20:49:55.633Z,27.08
2018-01-14T20:52:27.455Z,23.55
2018-01-14T20:54:56.910Z,23.85
2018-01-14T20:57:28.159Z,24.80
2018-01-14T20:59:59.381Z,23.48
2018-01-14T21:02:29.404Z,23.38
2018-01-14T21:05:01.424Z,23.20
2018-01-14T21:07:32.377Z,22.23
2018-01-14T21:10:01.564Z,19.67
2018-01-14T21:12:32.972Z,22.95
2018-01-14T21:15:03.312Z,23.45
2018-01-14T21:17:36.336Z,20.50
2018-01-14T21:20:07.997Z,22.42
2018-01-14T21:22:39.378Z,20.60
2018-01-14T21:25:08.548Z,28.02
2018-01-14T21:27:38.734Z,21.73
2018-01-14T21:30:08.026Z,22.50
2018-01-14T21:32:37.927Z,21.37
2018-01-14T21:35:07.148Z,22.67
2018-01-14T21:37:36.496Z,19.40
2018-01-14T21:40:06.463Z,18.12
2018-01-14T21:42:35.532Z,20.27
2018-01-14T21:45:05.374Z,20.90
2018-01-14T21:47:34.544Z,18.67
2018-01-14T21:50:03.846Z,20.17
2018-01-14T21:52:32.954Z,20.20
2018-01-14T21:55:02.681Z,19.52
2018-01-14T21:57:31.890Z,20.45
2018-01-14T22:00:01.257Z,19.05
2018-01-14T22:02:30.308Z,19.35
2018-01-14T22:05:00.324Z,18.48
2018-01-14T22:07:30.145Z,19.30
2018-01-14T22:10:00.314Z,18.05
2018-01-14T22:12:29.385Z,22.13
2018-01-14T22:14:58.364Z,24.37
2018-01-14T22:17:28.130Z,17.10
2018-01-14T22:19:58.121Z,18.48
2018-01-14T22:22:27.869Z,19.33
2018-01-14T22:24:56.919Z,18.48
2018-01-14T22:27:25.928Z,17.42
2018-01-14T22:29:55.109Z,16.10
2018-01-14T22:32:24.214Z,18.92
2018-01-14T22:34:53.257Z,19.20
2018-01-14T22:37:23.389Z,15.55
2018-01-14T22:39:52.441Z,21.27
2018-01-14T22:42:24.107Z,17.35
2018-01-14T22:44:53.103Z,16.85
2018-01-14T22:47:22.911Z,21.17
2018-01-14T22:49:51.917Z,18.77
2018-01-14T22:52:20.966Z,17.00
2018-01-14T22:54:50.325Z,15.93
2018-01-14T22:57:20.105Z,20.10
2018-01-14T22:59:49.192Z,19.15
2018-01-14T23:02:18.218Z,16.55
2018-01-14T23:04:47.971Z,15.70
2018-01-14T23:07:17.000Z,18.83
2018-01-14T23:09:46.061Z,17.35
2018-01-14T23:12:15.050Z,17.30
2018-01-14T23:14:48.258Z,16.87
2018-01-14T23:17:17.266Z,17.37
2018-01-14T23:19:48.177Z,16.73
2018-01-14T23:22:17.183Z,17.08
2018-01-14T23:24:46.172Z,15.98
2018-01-14T23:27:15.144Z,17.40
2018-01-14T23:29:44.135Z,17.15
2018-01-14T23:32:13.159Z,18.17
2018-01-14T23:34:42.160Z,17.02
2018-01-14T23:37:11.209Z,19.12
2018-01-14T23:39:40.227Z,17.70
2018-01-14T23:42:09.409Z,17.98
2018-01-14T23:44:38.732Z,16.75
2018-01-14T23:47:07.742Z,18.10
2018-01-14T23:49:36.698Z,15.80
2018-01-14T23:52:05.713Z,17.70
2018-01-14T23:54:34.767Z,18.58
2018-01-14T23:57:04.550Z,18.98
2018-01-14T23:59:34.350Z,17.73
